EGLCLSGG

Guest
Details From EGLC - London City
To LSGG - Geneva
Flight Number -
Tags Generated
Created
Modified
Stats Distance 396 nm / 734 km
Max Altitude 0 ft / 0 m
Waypoints 3
Social Downloads 1
Likes 0
Share VATSIM

Download

Looking for another format? Having issues loading an existing format? Contact us
Advertisement - Login to hide

Notes

Generated

Route

EGLC GG603 LSGG

ID Type Via Altitude Latitude Longitude Leg Dist Tot Dist Heading (true) Name
O EGLC APT - 0 ft / 0 m 51.50558˚ 0.04414˚ - 0 nm - -
GG603 FIX - 0 ft / 0 m 46.26861˚ 6.05778˚ 393 nm 393 nm 141° / 145° -
O LSGG APT - 0 ft / 0 m 46.23482˚ 6.09953˚ 2 nm 396 nm 139° / 140° -

Altitude Profile

Advertisement - Login to hide

Weather


0- 5 10 15 20 25 30 35+ Temperature / ° C

Clouds and Precipitation
Forecast for 2018-05-21 12:00 UTC. Updated 4 hours ago

Ground ~20,000 ft ~40,000 ft Winds

EGLC

Details ICAO EGLC (LCY)
Name London City
Region United Kingdom
Timezone Europe/London (UTC+1.0)
Stats Elevation 19 ft / 6 m (AMSL)
Location 51.505231° 0.055175°
Runways 1
Magnetic Variation 0.321° W

METAR

EGLC 211520Z AUTO VRB06KT 9999 NCD 22/10 Q1014

Decode

TAF

Not found

Departure Runways

ID Width Length Bearing (true) Bearing (mag) Surface Threshold Offset Overrun Length
09 98 ft / 30 m 4,931 ft / 1,503 m 92.89° 93.21° Concrete 322 ft / 98 m 164 ft / 50 m
27 98 ft / 30 m 4,931 ft / 1,503 m 272.91° 273.23° Concrete 243 ft / 74 m 279 ft / 85 m

LSGG

Details ICAO LSGG (GVA)
Name Geneva
Region Switzerland
Timezone Europe/Zurich (UTC+2.0)
Stats Elevation 1,410 ft / 430 m (AMSL)
Location 46.237755° 6.106173°
Runways 2
Magnetic Variation 1.790° E

METAR

LSGG 211520Z 06006KT 9999 FEW045 BKN300 23/09 Q1011 NOSIG

Decode

TAF

TAF LSGG 211425Z 2115/2221 05007KT 9999 FEW045TCU SCT250 TX22/2115Z TN12/2205Z TX21/2215Z BECMG 2117/2119 VRB03KT PROB40 TEMPO 2210/2216 TSRA SCT030CB

Decode

Destination Runways

ID Width Length Bearing (true) Bearing (mag) Surface Threshold Offset Overrun Length
05 180 ft / 55 m 12,796 ft / 3,900 m 45.43° 43.64° Concrete 1,079 ft / 329 m 66 ft / 20 m
05L 98 ft / 30 m 2,701 ft / 823 m 45.44° 43.65° Grass 610 ft / 186 m 0 ft / 0 m
23 180 ft / 55 m 12,796 ft / 3,900 m 225.45° 223.66° Concrete 0 ft / 0 m 66 ft / 20 m
23R 98 ft / 30 m 2,701 ft / 823 m 225.45° 223.66° Grass 997 ft / 304 m 0 ft / 0 m

Approach Navaids

Runway Type Ident Frequency Range Bearing (true) Bearing (mag) Slope Elevation
05 Localiser INE 110.90 MHz 18 nm / 33 km 45.45° 43.66° - 1,407 ft / 429 m (AMSL)
05 Glidescope INE 110.90 MHz 18 nm / 33 km 45.45° 43.66° 3.00° 1,460 ft / 445 m (AMSL)
05 DME INE 110.90 MHz 27 nm / 50 km - - - 1,460 ft / 445 m (AMSL)
23 Localiser ISW 109.90 MHz 20 nm / 37 km 225.43° 223.64° - 1,363 ft / 415 m (AMSL)
23 Glidescope ISW 109.90 MHz 20 nm / 37 km 225.43° 223.64° 3.00° 1,384 ft / 422 m (AMSL)
23 DME ISW 109.90 MHz 30 nm / 56 km - - - 1,384 ft / 422 m (AMSL)

Popular Alternatives